createdAt,value
2019-05-18T00:00:08.018Z,15.36
2019-05-18T00:01:07.979Z,15.35
2019-05-18T00:02:07.945Z,15.29
2019-05-18T00:03:07.971Z,15.31
2019-05-18T00:04:07.943Z,15.31
2019-05-18T00:05:07.914Z,15.31
2019-05-18T00:06:07.951Z,15.33
2019-05-18T00:07:07.921Z,15.28
2019-05-18T00:08:07.906Z,15.28
2019-05-18T00:09:07.869Z,15.35
2019-05-18T00:10:07.859Z,15.36
2019-05-18T00:11:07.885Z,15.39
2019-05-18T00:12:07.839Z,15.35
2019-05-18T00:13:07.834Z,15.31
2019-05-18T00:14:07.816Z,15.31
2019-05-18T00:15:07.807Z,15.37
2019-05-18T00:16:07.799Z,15.31
2019-05-18T00:17:17.320Z,15.36
2019-05-18T00:18:08.784Z,15.40
2019-05-18T00:19:07.766Z,15.42
2019-05-18T00:20:07.755Z,15.35
2019-05-18T00:21:07.746Z,15.40
2019-05-18T00:22:07.766Z,15.35
2019-05-18T00:23:07.718Z,15.36
2019-05-18T00:24:07.719Z,15.28
2019-05-18T00:25:07.701Z,15.31
2019-05-18T00:26:07.694Z,15.31
2019-05-18T00:27:07.713Z,15.29
2019-05-18T00:28:07.670Z,15.35
2019-05-18T00:29:07.650Z,15.36
2019-05-18T00:30:07.660Z,15.29
2019-05-18T00:31:07.634Z,15.27
2019-05-18T00:32:07.623Z,15.25
2019-05-18T00:33:07.640Z,15.33
2019-05-18T00:34:07.599Z,15.27
2019-05-18T00:35:07.585Z,15.29
2019-05-18T00:36:07.583Z,15.19
2019-05-18T00:37:07.571Z,15.24
2019-05-18T00:38:07.587Z,15.11
2019-05-18T00:39:07.578Z,15.15
2019-05-18T00:40:07.533Z,15.09
2019-05-18T00:41:07.558Z,15.06
2019-05-18T00:42:07.539Z,15.00
2019-05-18T00:43:07.737Z,15.15
2019-05-18T00:44:07.527Z,15.11
2019-05-18T00:45:07.558Z,15.09
2019-05-18T00:46:07.469Z,15.07
2019-05-18T00:47:07.509Z,15.04
2019-05-18T00:48:07.456Z,14.99
2019-05-18T00:49:07.472Z,14.97
2019-05-18T00:50:07.445Z,14.94
2019-05-18T00:51:07.422Z,14.96
2019-05-18T00:52:07.401Z,14.97
2019-05-18T00:53:07.393Z,15.07
2019-05-18T00:54:07.380Z,14.97
2019-05-18T00:55:07.421Z,15.02
2019-05-18T00:56:07.367Z,15.06
2019-05-18T00:57:07.369Z,15.06
2019-05-18T00:58:07.342Z,14.97
2019-05-18T00:59:07.353Z,14.89
2019-05-18T01:00:07.350Z,14.92
2019-05-18T01:01:07.305Z,14.94
2019-05-18T01:02:07.305Z,15.00
2019-05-18T01:03:07.291Z,14.91
2019-05-18T01:04:07.349Z,14.89
2019-05-18T01:05:07.338Z,14.92
2019-05-18T01:06:07.274Z,14.88
2019-05-18T01:07:07.242Z,14.89
2019-05-18T01:08:07.237Z,14.91
2019-05-18T01:09:07.259Z,14.85
2019-05-18T01:10:07.266Z,14.84
2019-05-18T01:11:07.206Z,14.89
2019-05-18T01:12:07.187Z,14.85
2019-05-18T01:13:07.176Z,14.84
2019-05-18T01:14:07.197Z,14.79
2019-05-18T01:15:07.161Z,14.77
2019-05-18T01:16:07.149Z,14.79
2019-05-18T01:17:07.159Z,14.84
2019-05-18T01:18:07.122Z,14.69
2019-05-18T01:19:07.227Z,14.70
2019-05-18T01:20:07.162Z,14.69
2019-05-18T01:21:07.148Z,14.73
2019-05-18T01:22:07.128Z,14.68
2019-05-18T01:23:07.137Z,14.66
2019-05-18T01:24:07.168Z,14.68
2019-05-18T01:25:07.059Z,14.68
2019-05-18T01:26:07.179Z,14.70
2019-05-18T01:27:07.074Z,14.72
2019-05-18T01:28:07.088Z,14.72
2019-05-18T01:29:07.117Z,14.72
2019-05-18T01:30:07.056Z,14.73
2019-05-18T01:31:07.102Z,14.81
2019-05-18T01:32:07.028Z,14.77
2019-05-18T01:33:07.095Z,14.86
2019-05-18T01:34:07.072Z,14.79
2019-05-18T01:35:07.018Z,14.88
2019-05-18T01:36:06.988Z,14.86
2019-05-18T01:37:07.005Z,14.86
2019-05-18T01:38:07.032Z,14.81
2019-05-18T01:39:07.007Z,14.82
2019-05-18T01:40:06.976Z,14.85
2019-05-18T01:41:06.930Z,14.91
2019-05-18T01:42:06.933Z,14.82
2019-05-18T01:43:06.911Z,14.79
2019-05-18T01:44:06.956Z,14.78
2019-05-18T01:45:16.476Z,14.91
2019-05-18T01:46:07.855Z,14.77
2019-05-18T01:47:06.845Z,14.73
2019-05-18T01:48:14.220Z,14.85
2019-05-18T01:49:07.918Z,14.85
2019-05-18T01:50:06.828Z,14.77
2019-05-18T01:51:06.818Z,14.84
2019-05-18T01:52:06.818Z,14.86
2019-05-18T01:53:06.810Z,14.84
2019-05-18T01:54:06.799Z,14.79
2019-05-18T01:55:06.830Z,14.69
2019-05-18T01:56:06.763Z,14.72
2019-05-18T01:57:06.793Z,14.68
2019-05-18T01:58:06.770Z,14.73
2019-05-18T01:59:06.803Z,14.77
2019-05-18T02:00:06.819Z,14.68
2019-05-18T02:01:06.723Z,14.60
2019-05-18T02:02:06.704Z,14.65
2019-05-18T02:03:06.696Z,14.55
2019-05-18T02:04:06.740Z,14.60
2019-05-18T02:05:06.655Z,14.62
2019-05-18T02:06:06.642Z,14.65
2019-05-18T02:07:06.633Z,14.68
2019-05-18T02:08:06.636Z,14.72
2019-05-18T02:09:06.680Z,14.69
2019-05-18T02:10:06.601Z,14.62
2019-05-18T02:11:06.600Z,14.63
2019-05-18T02:12:06.589Z,14.55
2019-05-18T02:13:06.790Z,14.60
2019-05-18T02:14:06.603Z,14.54
2019-05-18T02:15:06.557Z,14.58
2019-05-18T02:16:06.487Z,14.53
2019-05-18T02:17:06.494Z,14.51
2019-05-18T02:18:06.464Z,14.53
2019-05-18T02:19:06.485Z,14.59
2019-05-18T02:20:06.453Z,14.59
2019-05-18T02:21:06.436Z,14.58
2019-05-18T02:22:06.429Z,14.54
2019-05-18T02:23:06.412Z,14.50
2019-05-18T02:24:06.463Z,14.58
2019-05-18T02:25:06.402Z,14.59
2019-05-18T02:26:06.383Z,14.59
2019-05-18T02:27:06.375Z,14.62
2019-05-18T02:28:06.358Z,14.59
2019-05-18T02:29:06.382Z,14.60
2019-05-18T02:30:06.355Z,14.60
2019-05-18T02:31:06.325Z,14.59
2019-05-18T02:32:06.317Z,14.58
2019-05-18T02:33:06.326Z,14.53
2019-05-18T02:34:06.335Z,14.44
2019-05-18T02:35:06.320Z,14.43
2019-05-18T02:36:06.269Z,14.43
2019-05-18T02:37:06.259Z,14.50
2019-05-18T02:38:06.254Z,14.37
2019-05-18T02:39:06.271Z,14.41
2019-05-18T02:40:06.258Z,14.40
2019-05-18T02:41:06.215Z,14.47
2019-05-18T02:42:06.211Z,14.47
2019-05-18T02:43:06.195Z,14.44
2019-05-18T02:44:06.189Z,14.44
2019-05-18T02:45:06.212Z,14.40
2019-05-18T02:46:06.166Z,14.45
2019-05-18T02:47:06.155Z,14.41
2019-05-18T02:48:06.147Z,14.41
2019-05-18T02:49:06.133Z,14.36
2019-05-18T02:50:06.159Z,14.43
2019-05-18T02:51:06.108Z,14.43
2019-05-18T02:52:06.105Z,14.36
2019-05-18T02:53:06.098Z,14.44
2019-05-18T02:54:06.075Z,14.29
2019-05-18T02:55:06.098Z,14.35
2019-05-18T02:56:06.057Z,14.37
2019-05-18T02:57:06.046Z,14.32
2019-05-18T02:58:06.080Z,14.35
2019-05-18T02:59:06.027Z,14.30
2019-05-18T03:00:06.017Z,14.33
2019-05-18T03:01:06.004Z,14.43
2019-05-18T03:02:05.991Z,14.33
2019-05-18T03:03:05.979Z,14.30
2019-05-18T03:04:06.017Z,14.29
2019-05-18T03:05:05.983Z,14.33
2019-05-18T03:06:05.979Z,14.30
2019-05-18T03:07:05.951Z,14.28
2019-05-18T03:08:05.925Z,14.23
2019-05-18T03:09:05.932Z,14.25
2019-05-18T03:10:05.940Z,14.18
2019-05-18T03:11:05.930Z,14.22
2019-05-18T03:12:05.903Z,14.18
2019-05-18T03:13:05.870Z,14.05
2019-05-18T03:14:06.330Z,14.03
2019-05-18T03:15:05.880Z,14.11
2019-05-18T03:16:05.847Z,14.08
2019-05-18T03:17:05.839Z,14.12
2019-05-18T03:18:05.819Z,14.08
2019-05-18T03:19:08.622Z,14.11
2019-05-18T03:20:05.825Z,14.15
2019-05-18T03:21:05.784Z,14.10
2019-05-18T03:22:05.772Z,14.14
2019-05-18T03:23:05.774Z,14.20
2019-05-18T03:24:05.781Z,14.22
2019-05-18T03:25:05.811Z,14.25
2019-05-18T03:26:05.743Z,14.23
2019-05-18T03:27:05.720Z,14.22
2019-05-18T03:28:05.763Z,14.26
2019-05-18T03:29:05.701Z,14.15
2019-05-18T03:30:05.735Z,14.15
2019-05-18T03:31:05.706Z,14.15
2019-05-18T03:32:05.664Z,14.14
2019-05-18T03:33:05.703Z,14.14
2019-05-18T03:34:05.661Z,14.17
2019-05-18T03:35:05.673Z,14.18
2019-05-18T03:36:05.629Z,14.20
2019-05-18T03:37:05.614Z,14.20
2019-05-18T03:38:05.602Z,14.23
2019-05-18T03:39:05.594Z,14.20
2019-05-18T03:40:05.608Z,14.14
2019-05-18T03:41:05.565Z,14.25
2019-05-18T03:42:05.560Z,14.15
2019-05-18T03:43:05.553Z,14.20
2019-05-18T03:44:05.531Z,14.20
2019-05-18T03:45:05.552Z,14.15
2019-05-18T03:46:05.517Z,14.07
2019-05-18T03:47:05.502Z,14.07
2019-05-18T03:48:05.501Z,14.14
2019-05-18T03:49:05.484Z,14.15
2019-05-18T03:50:06.260Z,14.15
2019-05-18T03:51:05.463Z,14.10
2019-05-18T03:52:05.445Z,14.14
2019-05-18T03:53:05.448Z,14.15
2019-05-18T03:54:05.425Z,14.07
2019-05-18T03:55:05.452Z,14.14
2019-05-18T03:56:05.409Z,14.15
2019-05-18T03:57:05.430Z,14.08
2019-05-18T03:58:05.380Z,14.08
2019-05-18T03:59:05.390Z,14.10
2019-05-18T04:00:05.398Z,14.15
2019-05-18T04:01:05.359Z,14.15
2019-05-18T04:02:05.343Z,14.22
2019-05-18T04:03:05.337Z,14.11
2019-05-18T04:04:05.320Z,14.22
2019-05-18T04:05:05.368Z,14.17
2019-05-18T04:06:05.294Z,14.03
2019-05-18T04:07:05.286Z,13.96
2019-05-18T04:08:05.284Z,13.85
2019-05-18T04:09:06.250Z,13.81
2019-05-18T04:10:05.291Z,13.72
2019-05-18T04:11:05.281Z,13.78
2019-05-18T04:12:05.286Z,13.83
2019-05-18T04:13:05.252Z,13.85
2019-05-18T04:14:08.187Z,13.79
2019-05-18T04:15:05.203Z,13.95
2019-05-18T04:16:05.242Z,13.93
2019-05-18T04:17:05.179Z,13.97
2019-05-18T04:18:05.193Z,13.95
2019-05-18T04:19:05.154Z,14.05
2019-05-18T04:20:05.162Z,14.04
2019-05-18T04:21:05.180Z,13.97
2019-05-18T04:22:05.127Z,14.07
2019-05-18T04:23:05.116Z,14.04
2019-05-18T04:24:05.135Z,14.11
2019-05-18T04:25:05.093Z,14.08
2019-05-18T04:26:05.119Z,14.04
2019-05-18T04:27:05.066Z,14.03
2019-05-18T04:28:05.063Z,14.07
2019-05-18T04:29:05.051Z,14.00
2019-05-18T04:30:05.041Z,13.99
2019-05-18T04:31:05.058Z,13.95
2019-05-18T04:32:05.020Z,13.99
2019-05-18T04:33:05.033Z,13.93
2019-05-18T04:34:04.997Z,13.96
2019-05-18T04:35:04.986Z,14.03
2019-05-18T04:36:05.016Z,14.10
2019-05-18T04:37:04.957Z,14.08
2019-05-18T04:38:04.946Z,14.17
2019-05-18T04:39:04.945Z,14.11
2019-05-18T04:40:04.936Z,14.07
2019-05-18T04:41:04.960Z,14.03
2019-05-18T04:42:04.913Z,13.99
2019-05-18T04:43:04.912Z,13.96
2019-05-18T04:44:04.881Z,13.93
2019-05-18T04:45:04.903Z,13.96
2019-05-18T04:46:04.865Z,13.90
2019-05-18T04:47:04.854Z,13.89
2019-05-18T04:48:04.836Z,13.97
2019-05-18T04:49:04.825Z,13.97
2019-05-18T04:50:06.234Z,13.99
2019-05-18T04:51:04.810Z,14.00
2019-05-18T04:52:04.798Z,14.14
2019-05-18T04:53:04.790Z,14.18
2019-05-18T04:54:04.776Z,14.11
2019-05-18T04:55:04.799Z,14.20
2019-05-18T04:56:04.752Z,14.25
2019-05-18T04:57:04.739Z,14.26
2019-05-18T04:58:04.732Z,14.33
2019-05-18T04:59:04.735Z,14.30
2019-05-18T05:00:04.710Z,14.26
2019-05-18T05:01:04.732Z,14.32
2019-05-18T05:02:04.716Z,14.33
2019-05-18T05:03:04.674Z,14.43
2019-05-18T05:04:04.682Z,14.43
2019-05-18T05:05:04.661Z,14.41
2019-05-18T05:06:04.682Z,14.48
2019-05-18T05:07:04.635Z,14.48
2019-05-18T05:08:04.621Z,14.33
2019-05-18T05:09:04.609Z,14.29
2019-05-18T05:10:04.847Z,14.32
2019-05-18T05:11:04.624Z,14.32
2019-05-18T05:12:04.579Z,14.23
2019-05-18T05:13:04.569Z,14.22
2019-05-18T05:14:04.562Z,14.18
2019-05-18T05:15:04.550Z,14.18
2019-05-18T05:16:04.564Z,14.18
2019-05-18T05:17:04.523Z,14.20
2019-05-18T05:18:04.516Z,14.22
2019-05-18T05:19:04.510Z,14.18
2019-05-18T05:20:18.308Z,14.20
2019-05-18T05:21:05.514Z,14.33
2019-05-18T05:22:04.467Z,14.35
2019-05-18T05:23:04.462Z,14.35
2019-05-18T05:24:04.456Z,14.41
2019-05-18T05:25:04.452Z,14.37
2019-05-18T05:26:04.465Z,14.44
2019-05-18T05:27:04.423Z,14.44
2019-05-18T05:28:04.404Z,14.54
2019-05-18T05:29:04.395Z,14.58
2019-05-18T05:30:04.382Z,14.59
2019-05-18T05:31:04.416Z,14.59
2019-05-18T05:32:04.374Z,14.69
2019-05-18T05:33:04.368Z,14.68
2019-05-18T05:34:04.372Z,14.69
2019-05-18T05:35:04.353Z,14.73
2019-05-18T05:36:04.325Z,14.85
2019-05-18T05:37:04.371Z,14.86
2019-05-18T05:38:04.302Z,14.79
2019-05-18T05:39:04.293Z,14.82
2019-05-18T05:40:04.365Z,14.84
2019-05-18T05:41:04.274Z,14.85
2019-05-18T05:42:04.306Z,14.79
2019-05-18T05:43:04.267Z,14.79
2019-05-18T05:44:04.244Z,14.86
2019-05-18T05:45:04.249Z,14.73
2019-05-18T05:46:04.271Z,14.91
2019-05-18T05:47:04.207Z,14.94
2019-05-18T05:48:04.190Z,14.97
2019-05-18T05:49:04.179Z,14.96
2019-05-18T05:50:04.175Z,14.97
2019-05-18T05:51:04.198Z,14.99
2019-05-18T05:52:04.227Z,15.00
2019-05-18T05:53:04.143Z,14.94
2019-05-18T05:54:04.125Z,14.96
2019-05-18T05:55:04.121Z,14.96
2019-05-18T05:56:04.167Z,14.96
2019-05-18T05:57:04.130Z,14.92
2019-05-18T05:58:04.092Z,15.04
2019-05-18T05:59:04.077Z,15.02
2019-05-18T06:00:04.065Z,15.11
2019-05-18T06:01:04.082Z,15.02
2019-05-18T06:02:04.040Z,15.14
2019-05-18T06:03:04.035Z,15.06
2019-05-18T06:04:04.022Z,15.22
2019-05-18T06:05:04.014Z,15.11
2019-05-18T06:06:03.996Z,15.22
2019-05-18T06:07:04.007Z,15.25
2019-05-18T06:08:03.981Z,15.31
2019-05-18T06:09:03.974Z,15.42
2019-05-18T06:10:03.961Z,15.52
2019-05-18T06:11:03.951Z,15.49
2019-05-18T06:12:03.974Z,15.44
2019-05-18T06:13:03.922Z,15.49
2019-05-18T06:14:03.911Z,15.47
2019-05-18T06:15:03.913Z,15.47
2019-05-18T06:16:03.894Z,15.47
2019-05-18T06:17:03.945Z,15.52
2019-05-18T06:18:03.874Z,15.55
2019-05-18T06:19:03.863Z,15.58
2019-05-18T06:20:03.847Z,15.54
2019-05-18T06:21:03.836Z,15.55
2019-05-18T06:22:03.862Z,15.59
2019-05-18T06:23:03.822Z,15.75
2019-05-18T06:24:03.807Z,15.72
2019-05-18T06:25:05.211Z,15.80
2019-05-18T06:26:03.782Z,15.84
2019-05-18T06:27:03.802Z,15.83
2019-05-18T06:28:03.783Z,15.88
2019-05-18T06:29:03.902Z,15.95
2019-05-18T06:30:03.772Z,15.94
2019-05-18T06:31:03.778Z,15.94
2019-05-18T06:32:03.720Z,16.01
2019-05-18T06:33:03.712Z,16.09
2019-05-18T06:34:03.746Z,16.12
2019-05-18T06:35:03.683Z,16.17
2019-05-18T06:36:03.684Z,16.17
2019-05-18T06:37:03.692Z,16.23
2019-05-18T06:38:03.667Z,16.23
2019-05-18T06:39:03.646Z,16.42
2019-05-18T06:40:03.636Z,16.43
2019-05-18T06:41:03.634Z,16.53
2019-05-18T06:42:03.664Z,16.51
2019-05-18T06:43:03.610Z,16.53
2019-05-18T06:44:03.588Z,16.53
2019-05-18T06:45:03.577Z,16.56
2019-05-18T06:46:03.566Z,16.57
2019-05-18T06:47:03.582Z,16.65
2019-05-18T06:48:03.631Z,16.75
2019-05-18T06:49:03.542Z,16.86
2019-05-18T06:50:03.533Z,16.93
2019-05-18T06:51:07.322Z,16.79
2019-05-18T06:52:03.540Z,16.93
2019-05-18T06:53:03.497Z,17.04
2019-05-18T06:54:03.489Z,17.08
2019-05-18T06:55:03.485Z,17.06
2019-05-18T06:56:03.521Z,17.14
2019-05-18T06:57:03.585Z,17.26
2019-05-18T06:58:03.452Z,17.31
2019-05-18T06:59:03.534Z,17.42
2019-05-18T07:00:03.500Z,17.48
2019-05-18T07:01:03.411Z,17.57
2019-05-18T07:02:03.423Z,17.68
2019-05-18T07:03:03.390Z,17.71
2019-05-18T07:04:03.376Z,17.60
2019-05-18T07:05:03.366Z,17.60
2019-05-18T07:06:03.354Z,17.70
2019-05-18T07:07:03.377Z,17.71
2019-05-18T07:08:03.335Z,17.83
2019-05-18T07:09:03.388Z,17.90
2019-05-18T07:10:03.320Z,17.94
2019-05-18T07:11:03.314Z,18.05
2019-05-18T07:12:03.319Z,18.08
2019-05-18T07:13:03.285Z,18.15
2019-05-18T07:14:03.270Z,18.19
2019-05-18T07:15:03.355Z,18.22
2019-05-18T07:16:03.339Z,18.56
2019-05-18T07:17:03.265Z,18.98
2019-05-18T07:18:03.228Z,19.63
2019-05-18T07:19:03.229Z,20.74
2019-05-18T07:20:03.303Z,22.33
2019-05-18T07:21:03.204Z,23.74
2019-05-18T07:22:03.570Z,25.08
2019-05-18T07:23:03.199Z,26.28
2019-05-18T07:24:03.201Z,27.11
2019-05-18T07:25:03.159Z,27.80
2019-05-18T07:26:03.258Z,28.49
2019-05-18T07:27:03.131Z,29.34
2019-05-18T07:28:03.150Z,29.87
2019-05-18T07:29:05.642Z,29.95
2019-05-18T07:30:03.099Z,30.30
2019-05-18T07:31:03.106Z,30.88
2019-05-18T07:32:03.159Z,31.20
2019-05-18T07:33:03.179Z,31.15
2019-05-18T07:34:03.060Z,30.44
2019-05-18T07:35:03.120Z,29.23
2019-05-18T07:36:03.104Z,27.89
2019-05-18T07:37:03.070Z,26.80
2019-05-18T07:38:03.067Z,26.09
2019-05-18T07:39:03.124Z,25.96
2019-05-18T07:40:03.077Z,26.26
2019-05-18T07:41:03.018Z,27.35
2019-05-18T07:42:03.013Z,28.67
2019-05-18T07:43:03.095Z,29.98
2019-05-18T07:44:03.014Z,31.29
2019-05-18T07:45:03.020Z,31.73
2019-05-18T07:46:03.034Z,32.21
2019-05-18T07:47:02.944Z,32.80
2019-05-18T07:48:03.039Z,33.49
2019-05-18T07:49:02.959Z,33.94
2019-05-18T07:50:02.978Z,34.38
2019-05-18T07:51:02.937Z,34.52
2019-05-18T07:52:02.951Z,34.33
2019-05-18T07:53:02.987Z,34.57
2019-05-18T07:54:02.937Z,34.81
2019-05-18T07:55:02.910Z,34.55
2019-05-18T07:56:02.909Z,34.40
2019-05-18T07:57:02.874Z,34.85
2019-05-18T07:58:02.870Z,35.45
2019-05-18T07:59:02.922Z,35.70
2019-05-18T08:00:02.868Z,35.85
2019-05-18T08:01:02.856Z,36.08
2019-05-18T08:02:02.792Z,36.42
2019-05-18T08:03:03.440Z,36.83
2019-05-18T08:04:02.944Z,37.23
2019-05-18T08:05:02.812Z,37.51
2019-05-18T08:06:02.840Z,37.97
2019-05-18T08:07:02.765Z,38.01
2019-05-18T08:08:02.792Z,38.06
2019-05-18T08:09:02.818Z,38.24
2019-05-18T08:10:02.793Z,37.67
2019-05-18T08:11:02.727Z,37.39
2019-05-18T08:12:02.772Z,37.47
2019-05-18T08:13:02.703Z,37.44
2019-05-18T08:14:02.751Z,37.36
2019-05-18T08:15:02.688Z,37.30
2019-05-18T08:16:02.728Z,37.53
2019-05-18T08:17:02.683Z,38.24
2019-05-18T08:18:02.718Z,38.76
2019-05-18T08:19:02.710Z,38.15
2019-05-18T08:20:02.616Z,37.44
2019-05-18T08:21:02.610Z,36.30
2019-05-18T08:22:02.601Z,36.35
2019-05-18T08:23:02.590Z,36.67
2019-05-18T08:24:02.639Z,36.31
2019-05-18T08:25:02.580Z,36.68
2019-05-18T08:26:02.570Z,37.14
2019-05-18T08:27:02.677Z,37.60
2019-05-18T08:28:02.547Z,37.72
2019-05-18T08:29:02.545Z,38.20
2019-05-18T08:30:02.570Z,38.33
2019-05-18T08:31:02.535Z,38.74
2019-05-18T08:32:02.512Z,37.87
2019-05-18T08:33:02.513Z,37.96
2019-05-18T08:34:02.514Z,37.97
2019-05-18T08:35:02.525Z,37.67
2019-05-18T08:36:02.489Z,37.48
2019-05-18T08:37:02.478Z,37.58
2019-05-18T08:38:02.482Z,37.28
2019-05-18T08:39:02.617Z,36.80
2019-05-18T08:40:02.479Z,36.27
2019-05-18T08:41:02.496Z,35.97
2019-05-18T08:42:02.434Z,35.88
2019-05-18T08:43:02.422Z,36.74
2019-05-18T08:44:02.418Z,37.48
2019-05-18T08:45:02.442Z,37.90
2019-05-18T08:46:02.419Z,38.28
2019-05-18T08:47:02.387Z,37.17
2019-05-18T08:48:02.386Z,37.15
2019-05-18T08:49:02.401Z,36.98
2019-05-18T08:50:02.372Z,36.95
2019-05-18T08:51:02.394Z,36.98
2019-05-18T08:52:08.354Z,37.55
2019-05-18T08:53:03.371Z,37.80
2019-05-18T08:54:02.334Z,37.97
2019-05-18T08:55:02.448Z,38.33
2019-05-18T08:56:02.357Z,38.55
2019-05-18T08:57:02.319Z,38.60
2019-05-18T08:58:02.308Z,38.62
2019-05-18T08:59:02.297Z,38.83
2019-05-18T09:00:02.342Z,39.00
2019-05-18T09:01:02.310Z,39.25
2019-05-18T09:02:02.275Z,39.55
2019-05-18T09:03:02.282Z,40.00
2019-05-18T09:04:02.312Z,40.68
2019-05-18T09:05:04.783Z,40.82
2019-05-18T09:06:02.272Z,41.00
2019-05-18T09:07:02.263Z,41.47
2019-05-18T09:08:02.227Z,41.47
2019-05-18T09:09:02.223Z,39.97
2019-05-18T09:10:02.214Z,39.44
2019-05-18T09:11:02.252Z,39.72
2019-05-18T09:12:02.206Z,40.08
2019-05-18T09:13:02.215Z,38.86
2019-05-18T09:14:02.214Z,38.48
2019-05-18T09:15:02.175Z,37.87
2019-05-18T09:16:02.173Z,37.86
2019-05-18T09:17:02.189Z,38.49
2019-05-18T09:18:04.898Z,38.87
2019-05-18T09:19:02.150Z,39.68
2019-05-18T09:20:02.139Z,39.56
2019-05-18T09:21:02.225Z,40.12
2019-05-18T09:22:02.151Z,40.68
2019-05-18T09:23:02.117Z,41.24
2019-05-18T09:24:02.105Z,41.90
2019-05-18T09:25:02.254Z,42.62
2019-05-18T09:26:02.110Z,42.81
2019-05-18T09:27:02.113Z,41.90
2019-05-18T09:28:02.098Z,42.04
2019-05-18T09:29:02.186Z,41.98
2019-05-18T09:30:02.070Z,41.59
2019-05-18T09:31:02.076Z,41.60
2019-05-18T09:32:02.070Z,41.62
2019-05-18T09:33:02.042Z,40.97
2019-05-18T09:34:02.041Z,40.58
2019-05-18T09:35:02.034Z,40.90
2019-05-18T09:36:02.023Z,41.40
2019-05-18T09:37:02.041Z,42.01
2019-05-18T09:38:02.008Z,42.69
2019-05-18T09:39:02.002Z,43.19
2019-05-18T09:40:02.007Z,43.65
2019-05-18T09:41:01.990Z,44.22
2019-05-18T09:42:02.037Z,44.78
2019-05-18T09:43:02.859Z,45.20
2019-05-18T09:44:02.003Z,45.56
2019-05-18T09:45:02.008Z,45.89
2019-05-18T09:46:01.963Z,45.80
2019-05-18T09:47:02.461Z,45.56
2019-05-18T09:48:01.955Z,44.34
2019-05-18T09:49:02.859Z,44.32
2019-05-18T09:50:01.983Z,43.50
2019-05-18T09:51:01.920Z,43.58
2019-05-18T09:52:02.095Z,43.35
2019-05-18T09:53:01.985Z,43.41
2019-05-18T09:54:01.909Z,43.48
2019-05-18T09:55:01.930Z,43.95
2019-05-18T09:56:01.901Z,44.52
2019-05-18T09:57:01.990Z,45.12
2019-05-18T09:58:01.990Z,45.66
2019-05-18T09:59:01.955Z,46.03
2019-05-18T10:00:02.859Z,45.72
2019-05-18T10:01:01.937Z,43.87
2019-05-18T10:02:01.959Z,43.49
2019-05-18T10:03:01.950Z,43.31
2019-05-18T10:04:01.946Z,43.77
2019-05-18T10:05:01.858Z,44.42
2019-05-18T10:06:02.102Z,44.44
2019-05-18T10:07:01.977Z,44.84
2019-05-18T10:08:02.039Z,45.39
2019-05-18T10:09:02.016Z,44.76
2019-05-18T10:10:02.035Z,44.27
2019-05-18T10:11:01.896Z,44.33
2019-05-18T10:12:02.092Z,44.39
2019-05-18T10:13:01.983Z,43.30
2019-05-18T10:14:01.958Z,42.86
2019-05-18T10:15:02.077Z,42.76
2019-05-18T10:16:01.847Z,40.90
2019-05-18T10:17:01.788Z,40.24
2019-05-18T10:18:01.785Z,39.74
2019-05-18T10:19:01.755Z,38.38
2019-05-18T10:20:16.417Z,38.28
2019-05-18T10:21:01.740Z,37.33
2019-05-18T10:22:01.737Z,36.68
2019-05-18T10:23:12.326Z,36.40
2019-05-18T10:24:02.772Z,35.34
2019-05-18T10:25:01.717Z,34.38
2019-05-18T10:26:01.700Z,33.09
2019-05-18T10:27:01.697Z,32.89
2019-05-18T10:28:01.728Z,32.53
2019-05-18T10:29:01.677Z,31.43
2019-05-18T10:30:01.683Z,31.03
2019-05-18T10:31:01.697Z,30.94
2019-05-18T10:32:01.665Z,31.37
2019-05-18T10:33:01.745Z,30.96
2019-05-18T10:34:01.636Z,30.25
2019-05-18T10:35:01.627Z,30.39
2019-05-18T10:36:01.642Z,30.68
2019-05-18T10:37:01.652Z,30.91
2019-05-18T10:38:01.685Z,30.91
2019-05-18T10:39:01.593Z,30.97
2019-05-18T10:40:01.582Z,31.12
2019-05-18T10:41:02.469Z,30.69
2019-05-18T10:42:01.573Z,30.03
2019-05-18T10:43:01.642Z,30.05
2019-05-18T10:44:01.588Z,30.02
2019-05-18T10:45:01.573Z,30.25
2019-05-18T10:46:02.421Z,30.24
2019-05-18T10:47:01.591Z,29.87
2019-05-18T10:48:01.628Z,29.90
2019-05-18T10:49:01.500Z,30.00
2019-05-18T10:50:01.558Z,30.09
2019-05-18T10:51:01.483Z,30.24
2019-05-18T10:52:01.481Z,29.50
2019-05-18T10:53:01.484Z,28.89
2019-05-18T10:54:01.460Z,28.51
2019-05-18T10:55:01.540Z,28.26
2019-05-18T10:56:01.480Z,27.86
2019-05-18T10:57:01.425Z,27.65
2019-05-18T10:58:01.416Z,27.74
2019-05-18T10:59:01.397Z,27.42
2019-05-18T11:00:01.437Z,27.26
2019-05-18T11:01:01.381Z,27.20
2019-05-18T11:02:01.372Z,27.20
2019-05-18T11:03:01.362Z,27.22
2019-05-18T11:04:01.357Z,27.33
2019-05-18T11:05:01.423Z,27.26
2019-05-18T11:06:01.356Z,26.96
2019-05-18T11:07:01.324Z,26.97
2019-05-18T11:08:01.318Z,26.89
2019-05-18T11:09:01.329Z,26.89
2019-05-18T11:10:01.296Z,26.84
2019-05-18T11:11:01.320Z,26.75
2019-05-18T11:12:01.284Z,26.65
2019-05-18T11:13:01.310Z,26.47
2019-05-18T11:14:01.247Z,26.40
2019-05-18T11:15:01.448Z,26.60
2019-05-18T11:16:01.226Z,26.80
2019-05-18T11:17:01.218Z,26.89
2019-05-18T11:18:01.202Z,26.63
2019-05-18T11:19:01.222Z,26.73
2019-05-18T11:20:01.182Z,26.52
2019-05-18T11:21:01.222Z,26.23
2019-05-18T11:22:01.192Z,26.10
2019-05-18T11:23:01.154Z,26.06
2019-05-18T11:24:01.166Z,25.95
2019-05-18T11:25:01.126Z,25.73
2019-05-18T11:26:01.142Z,25.50
2019-05-18T11:27:01.286Z,25.31
2019-05-18T11:28:01.103Z,25.48
2019-05-18T11:29:01.095Z,25.46
2019-05-18T11:30:01.198Z,25.43
2019-05-18T11:31:01.062Z,25.22
2019-05-18T11:32:01.314Z,25.16
2019-05-18T11:33:01.125Z,25.28
2019-05-18T11:34:01.050Z,24.98
2019-05-18T11:35:01.031Z,24.92
2019-05-18T11:36:01.019Z,25.01
2019-05-18T11:37:03.265Z,24.86
2019-05-18T11:38:01.042Z,24.63
2019-05-18T11:39:00.998Z,24.66
2019-05-18T11:40:02.118Z,24.91
2019-05-18T11:41:00.966Z,25.03
2019-05-18T11:42:00.962Z,25.40
2019-05-18T11:43:00.972Z,25.59
2019-05-18T11:44:00.931Z,25.63
2019-05-18T11:45:00.955Z,25.68
2019-05-18T11:46:00.975Z,25.53
2019-05-18T11:47:00.912Z,25.50
2019-05-18T11:48:01.024Z,25.53
2019-05-18T11:49:00.882Z,25.69
2019-05-18T11:50:00.869Z,25.58
2019-05-18T11:51:00.884Z,25.73
2019-05-18T11:52:00.847Z,25.68
2019-05-18T11:53:00.845Z,25.62
2019-05-18T11:54:00.862Z,25.43
2019-05-18T11:55:00.862Z,25.53
2019-05-18T11:56:00.804Z,25.32
2019-05-18T11:57:00.826Z,25.10
2019-05-18T11:58:00.792Z,25.11
2019-05-18T11:59:00.779Z,25.14
2019-05-18T12:00:00.804Z,25.28
2019-05-18T12:01:00.798Z,25.28
2019-05-18T12:02:00.754Z,25.29
2019-05-18T12:03:00.746Z,25.28
2019-05-18T12:04:00.719Z,25.21
2019-05-18T12:05:00.834Z,25.31
2019-05-18T12:06:00.717Z,25.50
2019-05-18T12:07:00.739Z,25.60
2019-05-18T12:08:00.687Z,25.70
2019-05-18T12:09:00.671Z,25.77
2019-05-18T12:10:00.693Z,25.63
2019-05-18T12:11:00.650Z,25.63
2019-05-18T12:12:00.644Z,25.65
2019-05-18T12:13:00.644Z,25.50
2019-05-18T12:14:00.613Z,25.40
2019-05-18T12:15:00.637Z,25.29
2019-05-18T12:16:00.597Z,25.40
2019-05-18T12:17:00.610Z,25.38
2019-05-18T12:18:00.602Z,25.22
2019-05-18T12:19:00.564Z,25.26
2019-05-18T12:20:00.591Z,25.31
2019-05-18T12:21:00.543Z,25.21
2019-05-18T12:22:00.526Z,25.28
2019-05-18T12:23:00.515Z,25.40
2019-05-18T12:24:14.242Z,25.63
2019-05-18T12:25:01.535Z,25.65
2019-05-18T12:26:00.510Z,25.69
2019-05-18T12:27:00.477Z,25.83
2019-05-18T12:28:00.477Z,25.78
2019-05-18T12:29:00.452Z,25.83
2019-05-18T12:30:00.483Z,25.84
2019-05-18T12:31:02.185Z,25.81
2019-05-18T12:32:00.431Z,25.91
2019-05-18T12:33:00.415Z,25.96
2019-05-18T12:34:00.401Z,25.96
2019-05-18T12:35:00.441Z,26.07
2019-05-18T12:36:00.381Z,26.19
2019-05-18T12:37:00.453Z,26.18
2019-05-18T12:38:00.364Z,26.07
2019-05-18T12:39:00.351Z,25.98
2019-05-18T12:40:00.375Z,25.90
2019-05-18T12:41:00.335Z,25.75
2019-05-18T12:42:00.313Z,25.58
2019-05-18T12:43:00.489Z,25.53
2019-05-18T12:44:00.307Z,25.62
2019-05-18T12:45:00.330Z,25.59
2019-05-18T12:46:00.281Z,25.65
2019-05-18T12:47:00.274Z,25.81
2019-05-18T12:48:00.251Z,25.84
2019-05-18T12:49:00.242Z,25.81
2019-05-18T12:50:00.279Z,25.88
2019-05-18T12:51:00.283Z,25.85
2019-05-18T12:52:00.222Z,25.91